sensor_id;sensor_type;location;lat;lon;timestamp;P1;durP1;ratioP1;P2;durP2;ratioP2
4460;SDS011;2243;48.812;9.232;2023-07-02T00:00:35;6.97;;;5.83;;
4460;SDS011;2243;48.812;9.232;2023-07-02T00:03:08;5.93;;;5.00;;
4460;SDS011;2243;48.812;9.232;2023-07-02T00:05:40;7.57;;;5.77;;
4460;SDS011;2243;48.812;9.232;2023-07-02T00:08:11;5.53;;;5.03;;
4460;SDS011;2243;48.812;9.232;2023-07-02T00:10:43;7.17;;;5.00;;
4460;SDS011;2243;48.812;9.232;2023-07-02T00:13:14;6.37;;;5.77;;
4460;SDS011;2243;48.812;9.232;2023-07-02T00:15:45;5.90;;;5.37;;
4460;SDS011;2243;48.812;9.232;2023-07-02T00:18:16;5.63;;;4.87;;
4460;SDS011;2243;48.812;9.232;2023-07-02T00:20:47;6.07;;;5.47;;
4460;SDS011;2243;48.812;9.232;2023-07-02T00:23:18;5.30;;;4.90;;
4460;SDS011;2243;48.812;9.232;2023-07-02T00:25:51;5.40;;;5.00;;
4460;SDS011;2243;48.812;9.232;2023-07-02T00:28:22;5.60;;;4.80;;
4460;SDS011;2243;48.812;9.232;2023-07-02T00:30:54;5.73;;;5.00;;
4460;SDS011;2243;48.812;9.232;2023-07-02T00:33:25;5.40;;;5.00;;
4460;SDS011;2243;48.812;9.232;2023-07-02T00:35:56;5.27;;;4.87;;
4460;SDS011;2243;48.812;9.232;2023-07-02T00:38:27;5.87;;;5.37;;
4460;SDS011;2243;48.812;9.232;2023-07-02T00:40:58;5.80;;;5.30;;
4460;SDS011;2243;48.812;9.232;2023-07-02T00:43:29;6.13;;;5.50;;
4460;SDS011;2243;48.812;9.232;2023-07-02T00:46:00;5.90;;;5.40;;
4460;SDS011;2243;48.812;9.232;2023-07-02T00:48:32;5.23;;;4.77;;
4460;SDS011;2243;48.812;9.232;2023-07-02T00:51:04;5.70;;;5.30;;
4460;SDS011;2243;48.812;9.232;2023-07-02T00:53:35;5.93;;;5.43;;
4460;SDS011;2243;48.812;9.232;2023-07-02T00:56:06;5.10;;;4.77;;
4460;SDS011;2243;48.812;9.232;2023-07-02T00:58:38;5.47;;;5.07;;
4460;SDS011;2243;48.812;9.232;2023-07-02T01:01:17;6.80;;;5.60;;
4460;SDS011;2243;48.812;9.232;2023-07-02T01:03:54;6.57;;;5.63;;
4460;SDS011;2243;48.812;9.232;2023-07-02T01:06:35;6.23;;;5.73;;
4460;SDS011;2243;48.812;9.232;2023-07-02T01:09:10;7.63;;;5.70;;
4460;SDS011;2243;48.812;9.232;2023-07-02T01:11:43;5.23;;;4.73;;
4460;SDS011;2243;48.812;9.232;2023-07-02T01:16:53;6.67;;;4.83;;
4460;SDS011;2243;48.812;9.232;2023-07-02T01:22:25;5.37;;;4.97;;
4460;SDS011;2243;48.812;9.232;2023-07-02T01:24:58;6.83;;;4.40;;
4460;SDS011;2243;48.812;9.232;2023-07-02T01:27:29;5.67;;;5.00;;
4460;SDS011;2243;48.812;9.232;2023-07-02T01:30:01;5.10;;;4.60;;
4460;SDS011;2243;48.812;9.232;2023-07-02T01:32:33;4.97;;;4.50;;
4460;SDS011;2243;48.812;9.232;2023-07-02T01:35:04;4.70;;;4.30;;
4460;SDS011;2243;48.812;9.232;2023-07-02T01:37:36;5.33;;;4.83;;
4460;SDS011;2243;48.812;9.232;2023-07-02T01:40:09;5.67;;;4.67;;
4460;SDS011;2243;48.812;9.232;2023-07-02T01:42:40;4.80;;;4.40;;
4460;SDS011;2243;48.812;9.232;2023-07-02T01:45:11;4.13;;;3.83;;
4460;SDS011;2243;48.812;9.232;2023-07-02T01:47:42;4.03;;;3.83;;
4460;SDS011;2243;48.812;9.232;2023-07-02T01:50:13;5.20;;;4.07;;
4460;SDS011;2243;48.812;9.232;2023-07-02T01:52:44;4.57;;;4.27;;
4460;SDS011;2243;48.812;9.232;2023-07-02T01:55:15;4.23;;;4.00;;
4460;SDS011;2243;48.812;9.232;2023-07-02T01:57:47;4.17;;;3.87;;
4460;SDS011;2243;48.812;9.232;2023-07-02T02:00:19;4.37;;;4.00;;
4460;SDS011;2243;48.812;9.232;2023-07-02T02:02:50;7.13;;;4.23;;
4460;SDS011;2243;48.812;9.232;2023-07-02T02:05:21;6.67;;;4.50;;
4460;SDS011;2243;48.812;9.232;2023-07-02T02:07:52;4.47;;;3.70;;
4460;SDS011;2243;48.812;9.232;2023-07-02T02:10:23;3.93;;;3.73;;
4460;SDS011;2243;48.812;9.232;2023-07-02T02:12:54;3.80;;;3.60;;
4460;SDS011;2243;48.812;9.232;2023-07-02T02:15:24;3.70;;;3.50;;
4460;SDS011;2243;48.812;9.232;2023-07-02T02:17:55;4.00;;;3.70;;
4460;SDS011;2243;48.812;9.232;2023-07-02T02:20:27;4.00;;;3.70;;
4460;SDS011;2243;48.812;9.232;2023-07-02T02:22:57;4.17;;;3.77;;
4460;SDS011;2243;48.812;9.232;2023-07-02T02:25:28;3.80;;;3.43;;
4460;SDS011;2243;48.812;9.232;2023-07-02T02:27:59;3.90;;;3.40;;
4460;SDS011;2243;48.812;9.232;2023-07-02T02:30:30;4.20;;;3.43;;
4460;SDS011;2243;48.812;9.232;2023-07-02T02:33:01;3.93;;;3.63;;
4460;SDS011;2243;48.812;9.232;2023-07-02T02:35:32;4.30;;;4.00;;
4460;SDS011;2243;48.812;9.232;2023-07-02T02:38:03;4.10;;;3.80;;
4460;SDS011;2243;48.812;9.232;2023-07-02T02:40:35;4.63;;;3.57;;
4460;SDS011;2243;48.812;9.232;2023-07-02T02:43:06;3.87;;;3.10;;
4460;SDS011;2243;48.812;9.232;2023-07-02T02:45:37;3.07;;;2.87;;
4460;SDS011;2243;48.812;9.232;2023-07-02T02:48:09;4.40;;;3.33;;
4460;SDS011;2243;48.812;9.232;2023-07-02T02:50:40;5.00;;;3.50;;
4460;SDS011;2243;48.812;9.232;2023-07-02T02:53:13;4.27;;;3.93;;
4460;SDS011;2243;48.812;9.232;2023-07-02T02:55:44;3.73;;;3.50;;
4460;SDS011;2243;48.812;9.232;2023-07-02T02:58:15;4.10;;;3.70;;
4460;SDS011;2243;48.812;9.232;2023-07-02T03:00:46;3.40;;;3.10;;
4460;SDS011;2243;48.812;9.232;2023-07-02T03:03:17;4.37;;;3.97;;
4460;SDS011;2243;48.812;9.232;2023-07-02T03:05:50;3.90;;;3.60;;
4460;SDS011;2243;48.812;9.232;2023-07-02T03:08:21;4.20;;;3.90;;
4460;SDS011;2243;48.812;9.232;2023-07-02T03:10:52;4.00;;;3.33;;
4460;SDS011;2243;48.812;9.232;2023-07-02T03:13:23;3.80;;;3.50;;
4460;SDS011;2243;48.812;9.232;2023-07-02T03:15:54;6.70;;;4.10;;
4460;SDS011;2243;48.812;9.232;2023-07-02T03:18:25;3.30;;;3.10;;
4460;SDS011;2243;48.812;9.232;2023-07-02T03:20:56;4.10;;;3.53;;
4460;SDS011;2243;48.812;9.232;2023-07-02T03:23:28;3.50;;;3.30;;
4460;SDS011;2243;48.812;9.232;2023-07-02T03:25:59;3.57;;;3.37;;
4460;SDS011;2243;48.812;9.232;2023-07-02T03:28:29;4.10;;;3.70;;
4460;SDS011;2243;48.812;9.232;2023-07-02T03:31:01;3.23;;;3.03;;
4460;SDS011;2243;48.812;9.232;2023-07-02T03:33:32;4.00;;;3.70;;
4460;SDS011;2243;48.812;9.232;2023-07-02T03:36:03;4.90;;;4.40;;
4460;SDS011;2243;48.812;9.232;2023-07-02T03:38:34;4.07;;;3.77;;
4460;SDS011;2243;48.812;9.232;2023-07-02T03:41:05;5.13;;;4.63;;
4460;SDS011;2243;48.812;9.232;2023-07-02T03:43:36;7.33;;;4.97;;
4460;SDS011;2243;48.812;9.232;2023-07-02T03:46:07;5.53;;;4.20;;
4460;SDS011;2243;48.812;9.232;2023-07-02T03:48:38;4.80;;;4.40;;
4460;SDS011;2243;48.812;9.232;2023-07-02T03:51:09;5.23;;;4.17;;
4460;SDS011;2243;48.812;9.232;2023-07-02T03:53:42;8.50;;;5.27;;
4460;SDS011;2243;48.812;9.232;2023-07-02T03:56:13;8.90;;;5.13;;
4460;SDS011;2243;48.812;9.232;2023-07-02T03:58:45;6.87;;;4.80;;
4460;SDS011;2243;48.812;9.232;2023-07-02T04:01:16;6.90;;;4.80;;
4460;SDS011;2243;48.812;9.232;2023-07-02T04:03:48;12.13;;;4.90;;
4460;SDS011;2243;48.812;9.232;2023-07-02T04:06:21;7.20;;;4.73;;
4460;SDS011;2243;48.812;9.232;2023-07-02T04:08:53;7.23;;;4.67;;
4460;SDS011;2243;48.812;9.232;2023-07-02T04:11:24;8.03;;;4.40;;
4460;SDS011;2243;48.812;9.232;2023-07-02T04:13:55;8.00;;;4.77;;
4460;SDS011;2243;48.812;9.232;2023-07-02T04:16:26;8.30;;;5.47;;
4460;SDS011;2243;48.812;9.232;2023-07-02T04:18:56;9.60;;;4.50;;
4460;SDS011;2243;48.812;9.232;2023-07-02T04:21:27;5.63;;;4.70;;
4460;SDS011;2243;48.812;9.232;2023-07-02T04:23:58;11.10;;;5.80;;
4460;SDS011;2243;48.812;9.232;2023-07-02T04:26:30;6.00;;;4.23;;
4460;SDS011;2243;48.812;9.232;2023-07-02T04:29:21;6.23;;;4.80;;
4460;SDS011;2243;48.812;9.232;2023-07-02T04:31:52;8.03;;;5.40;;
4460;SDS011;2243;48.812;9.232;2023-07-02T04:34:23;4.60;;;4.20;;
4460;SDS011;2243;48.812;9.232;2023-07-02T04:36:54;5.63;;;5.10;;
4460;SDS011;2243;48.812;9.232;2023-07-02T04:39:25;5.40;;;4.47;;
4460;SDS011;2243;48.812;9.232;2023-07-02T04:41:56;5.70;;;4.93;;
4460;SDS011;2243;48.812;9.232;2023-07-02T04:44:27;6.83;;;4.83;;
4460;SDS011;2243;48.812;9.232;2023-07-02T04:47:01;5.67;;;4.57;;
4460;SDS011;2243;48.812;9.232;2023-07-02T04:49:32;7.00;;;4.80;;
4460;SDS011;2243;48.812;9.232;2023-07-02T04:52:03;5.50;;;4.93;;
4460;SDS011;2243;48.812;9.232;2023-07-02T04:54:35;9.33;;;5.67;;
4460;SDS011;2243;48.812;9.232;2023-07-02T04:57:06;6.53;;;5.17;;
4460;SDS011;2243;48.812;9.232;2023-07-02T04:59:36;7.00;;;4.80;;
4460;SDS011;2243;48.812;9.232;2023-07-02T05:02:08;9.73;;;5.20;;
4460;SDS011;2243;48.812;9.232;2023-07-02T05:04:39;5.67;;;5.10;;
4460;SDS011;2243;48.812;9.232;2023-07-02T05:07:10;8.50;;;4.90;;
4460;SDS011;2243;48.812;9.232;2023-07-02T05:09:41;8.80;;;5.47;;
4460;SDS011;2243;48.812;9.232;2023-07-02T05:12:12;5.27;;;4.77;;
4460;SDS011;2243;48.812;9.232;2023-07-02T05:14:43;4.70;;;4.30;;
4460;SDS011;2243;48.812;9.232;2023-07-02T05:17:14;7.23;;;4.43;;
4460;SDS011;2243;48.812;9.232;2023-07-02T05:19:45;4.73;;;4.33;;
4460;SDS011;2243;48.812;9.232;2023-07-02T05:22:16;6.70;;;4.77;;
4460;SDS011;2243;48.812;9.232;2023-07-02T05:24:49;5.10;;;4.37;;
4460;SDS011;2243;48.812;9.232;2023-07-02T05:27:20;7.10;;;4.90;;
4460;SDS011;2243;48.812;9.232;2023-07-02T05:29:51;6.43;;;4.23;;
4460;SDS011;2243;48.812;9.232;2023-07-02T05:32:22;5.93;;;4.03;;
4460;SDS011;2243;48.812;9.232;2023-07-02T05:34:53;4.47;;;4.07;;
4460;SDS011;2243;48.812;9.232;2023-07-02T05:37:24;4.93;;;4.40;;
4460;SDS011;2243;48.812;9.232;2023-07-02T05:39:55;4.50;;;4.10;;
4460;SDS011;2243;48.812;9.232;2023-07-02T05:42:26;4.27;;;3.83;;
4460;SDS011;2243;48.812;9.232;2023-07-02T05:44:57;4.90;;;3.47;;
4460;SDS011;2243;48.812;9.232;2023-07-02T05:47:28;4.27;;;3.90;;
4460;SDS011;2243;48.812;9.232;2023-07-02T05:50:00;5.90;;;4.43;;
4460;SDS011;2243;48.812;9.232;2023-07-02T05:52:31;8.67;;;4.80;;
4460;SDS011;2243;48.812;9.232;2023-07-02T05:55:02;5.77;;;4.03;;
4460;SDS011;2243;48.812;9.232;2023-07-02T05:57:33;4.73;;;4.33;;
4460;SDS011;2243;48.812;9.232;2023-07-02T06:00:05;5.70;;;4.73;;
4460;SDS011;2243;48.812;9.232;2023-07-02T06:02:36;6.07;;;4.80;;
4460;SDS011;2243;48.812;9.232;2023-07-02T06:05:07;10.73;;;4.70;;
4460;SDS011;2243;48.812;9.232;2023-07-02T06:07:39;8.60;;;4.70;;
4460;SDS011;2243;48.812;9.232;2023-07-02T06:10:10;5.00;;;4.07;;
4460;SDS011;2243;48.812;9.232;2023-07-02T06:12:41;8.40;;;4.17;;
4460;SDS011;2243;48.812;9.232;2023-07-02T06:15:13;8.60;;;5.63;;
4460;SDS011;2243;48.812;9.232;2023-07-02T06:17:44;7.13;;;5.47;;
4460;SDS011;2243;48.812;9.232;2023-07-02T06:20:15;8.77;;;4.93;;
4460;SDS011;2243;48.812;9.232;2023-07-02T06:22:46;9.30;;;5.47;;
4460;SDS011;2243;48.812;9.232;2023-07-02T06:25:17;9.30;;;5.33;;
4460;SDS011;2243;48.812;9.232;2023-07-02T06:27:48;8.27;;;5.40;;
4460;SDS011;2243;48.812;9.232;2023-07-02T06:30:19;11.63;;;5.00;;
4460;SDS011;2243;48.812;9.232;2023-07-02T06:32:50;13.40;;;5.50;;
4460;SDS011;2243;48.812;9.232;2023-07-02T06:35:21;12.87;;;6.17;;
4460;SDS011;2243;48.812;9.232;2023-07-02T06:37:52;11.33;;;5.60;;
4460;SDS011;2243;48.812;9.232;2023-07-02T06:40:23;12.60;;;6.60;;
4460;SDS011;2243;48.812;9.232;2023-07-02T06:42:54;15.63;;;6.23;;
4460;SDS011;2243;48.812;9.232;2023-07-02T06:45:25;18.23;;;7.70;;
4460;SDS011;2243;48.812;9.232;2023-07-02T06:47:59;11.67;;;6.63;;
4460;SDS011;2243;48.812;9.232;2023-07-02T06:50:32;14.93;;;7.67;;
4460;SDS011;2243;48.812;9.232;2023-07-02T06:53:03;11.50;;;7.73;;
4460;SDS011;2243;48.812;9.232;2023-07-02T06:55:34;14.20;;;7.13;;
4460;SDS011;2243;48.812;9.232;2023-07-02T06:58:05;15.67;;;8.13;;
4460;SDS011;2243;48.812;9.232;2023-07-02T07:00:37;17.20;;;7.97;;
4460;SDS011;2243;48.812;9.232;2023-07-02T07:03:08;16.60;;;8.27;;
4460;SDS011;2243;48.812;9.232;2023-07-02T07:05:39;23.43;;;9.00;;
4460;SDS011;2243;48.812;9.232;2023-07-02T07:08:10;9.20;;;7.43;;
4460;SDS011;2243;48.812;9.232;2023-07-02T07:10:41;14.83;;;7.47;;
4460;SDS011;2243;48.812;9.232;2023-07-02T07:13:12;11.90;;;7.53;;
4460;SDS011;2243;48.812;9.232;2023-07-02T07:15:43;19.37;;;8.00;;
4460;SDS011;2243;48.812;9.232;2023-07-02T07:18:15;14.63;;;8.50;;
4460;SDS011;2243;48.812;9.232;2023-07-02T07:20:49;11.57;;;7.67;;
4460;SDS011;2243;48.812;9.232;2023-07-02T07:23:20;18.07;;;8.40;;
4460;SDS011;2243;48.812;9.232;2023-07-02T07:25:51;19.23;;;9.10;;
4460;SDS011;2243;48.812;9.232;2023-07-02T07:28:22;21.17;;;11.23;;
4460;SDS011;2243;48.812;9.232;2023-07-02T07:30:53;16.47;;;9.80;;
4460;SDS011;2243;48.812;9.232;2023-07-02T07:33:24;19.20;;;9.50;;
4460;SDS011;2243;48.812;9.232;2023-07-02T07:35:55;23.17;;;9.37;;
4460;SDS011;2243;48.812;9.232;2023-07-02T07:38:26;21.93;;;11.30;;
4460;SDS011;2243;48.812;9.232;2023-07-02T07:40:56;16.30;;;9.67;;
4460;SDS011;2243;48.812;9.232;2023-07-02T07:43:28;18.17;;;10.10;;
4460;SDS011;2243;48.812;9.232;2023-07-02T07:45:59;17.97;;;9.83;;
4460;SDS011;2243;48.812;9.232;2023-07-02T07:48:30;19.80;;;10.63;;
4460;SDS011;2243;48.812;9.232;2023-07-02T07:51:01;18.83;;;11.00;;
4460;SDS011;2243;48.812;9.232;2023-07-02T07:53:33;18.80;;;11.67;;
4460;SDS011;2243;48.812;9.232;2023-07-02T07:56:04;15.53;;;10.43;;
4460;SDS011;2243;48.812;9.232;2023-07-02T07:58:35;21.47;;;11.50;;
4460;SDS011;2243;48.812;9.232;2023-07-02T08:01:06;24.47;;;11.63;;
4460;SDS011;2243;48.812;9.232;2023-07-02T08:03:37;26.57;;;11.20;;
4460;SDS011;2243;48.812;9.232;2023-07-02T08:06:09;21.47;;;10.93;;
4460;SDS011;2243;48.812;9.232;2023-07-02T08:08:40;25.20;;;11.47;;
4460;SDS011;2243;48.812;9.232;2023-07-02T08:11:10;20.23;;;11.60;;
4460;SDS011;2243;48.812;9.232;2023-07-02T08:13:42;19.93;;;11.50;;
4460;SDS011;2243;48.812;9.232;2023-07-02T08:16:13;20.23;;;10.17;;
4460;SDS011;2243;48.812;9.232;2023-07-02T08:18:44;19.50;;;11.67;;
4460;SDS011;2243;48.812;9.232;2023-07-02T08:21:15;19.63;;;11.30;;
4460;SDS011;2243;48.812;9.232;2023-07-02T08:23:46;20.77;;;12.30;;
4460;SDS011;2243;48.812;9.232;2023-07-02T08:26:17;19.40;;;11.20;;
4460;SDS011;2243;48.812;9.232;2023-07-02T08:28:49;22.27;;;11.33;;
4460;SDS011;2243;48.812;9.232;2023-07-02T08:31:20;18.20;;;11.43;;
4460;SDS011;2243;48.812;9.232;2023-07-02T08:33:51;22.33;;;11.13;;
4460;SDS011;2243;48.812;9.232;2023-07-02T08:36:22;18.37;;;11.07;;
4460;SDS011;2243;48.812;9.232;2023-07-02T08:38:53;24.47;;;10.40;;
4460;SDS011;2243;48.812;9.232;2023-07-02T08:41:24;18.83;;;10.50;;
4460;SDS011;2243;48.812;9.232;2023-07-02T08:43:55;20.47;;;11.40;;
4460;SDS011;2243;48.812;9.232;2023-07-02T08:46:26;20.70;;;11.20;;
4460;SDS011;2243;48.812;9.232;2023-07-02T08:48:57;19.07;;;11.20;;
4460;SDS011;2243;48.812;9.232;2023-07-02T08:51:29;19.03;;;10.50;;
4460;SDS011;2243;48.812;9.232;2023-07-02T08:54:01;18.43;;;11.03;;
4460;SDS011;2243;48.812;9.232;2023-07-02T08:56:32;18.13;;;10.40;;
4460;SDS011;2243;48.812;9.232;2023-07-02T08:59:06;22.53;;;11.33;;
4460;SDS011;2243;48.812;9.232;2023-07-02T09:01:48;17.90;;;10.27;;
4460;SDS011;2243;48.812;9.232;2023-07-02T09:04:21;16.23;;;10.30;;
4460;SDS011;2243;48.812;9.232;2023-07-02T09:09:46;19.83;;;10.50;;
4460;SDS011;2243;48.812;9.232;2023-07-02T09:14:59;21.70;;;10.17;;
4460;SDS011;2243;48.812;9.232;2023-07-02T09:17:34;15.40;;;10.00;;
4460;SDS011;2243;48.812;9.232;2023-07-02T09:20:06;18.27;;;9.80;;
4460;SDS011;2243;48.812;9.232;2023-07-02T09:22:40;21.50;;;10.70;;
4460;SDS011;2243;48.812;9.232;2023-07-02T09:25:11;16.83;;;9.93;;
4460;SDS011;2243;48.812;9.232;2023-07-02T09:27:42;27.30;;;10.77;;
4460;SDS011;2243;48.812;9.232;2023-07-02T09:30:14;18.17;;;10.20;;
4460;SDS011;2243;48.812;9.232;2023-07-02T09:32:46;22.30;;;11.10;;
4460;SDS011;2243;48.812;9.232;2023-07-02T09:35:17;16.43;;;10.63;;
4460;SDS011;2243;48.812;9.232;2023-07-02T09:37:48;19.03;;;10.47;;
4460;SDS011;2243;48.812;9.232;2023-07-02T09:40:20;20.43;;;11.20;;
4460;SDS011;2243;48.812;9.232;2023-07-02T09:42:51;19.10;;;10.93;;
4460;SDS011;2243;48.812;9.232;2023-07-02T09:45:25;19.93;;;10.43;;
4460;SDS011;2243;48.812;9.232;2023-07-02T09:47:56;15.70;;;9.90;;
4460;SDS011;2243;48.812;9.232;2023-07-02T09:50:29;25.50;;;9.90;;
4460;SDS011;2243;48.812;9.232;2023-07-02T09:53:00;20.23;;;10.87;;
4460;SDS011;2243;48.812;9.232;2023-07-02T09:55:32;26.93;;;14.60;;
4460;SDS011;2243;48.812;9.232;2023-07-02T09:58:03;15.43;;;11.63;;
4460;SDS011;2243;48.812;9.232;2023-07-02T10:00:34;22.63;;;12.43;;
4460;SDS011;2243;48.812;9.232;2023-07-02T10:03:05;20.57;;;11.00;;
4460;SDS011;2243;48.812;9.232;2023-07-02T10:05:36;17.50;;;10.13;;
4460;SDS011;2243;48.812;9.232;2023-07-02T10:08:14;19.63;;;10.50;;
4460;SDS011;2243;48.812;9.232;2023-07-02T10:10:51;17.50;;;11.07;;
4460;SDS011;2243;48.812;9.232;2023-07-02T10:13:27;19.37;;;11.43;;
4460;SDS011;2243;48.812;9.232;2023-07-02T10:16:07;17.67;;;11.40;;
4460;SDS011;2243;48.812;9.232;2023-07-02T10:18:38;17.70;;;10.13;;
4460;SDS011;2243;48.812;9.232;2023-07-02T10:21:16;15.47;;;10.10;;
4460;SDS011;2243;48.812;9.232;2023-07-02T10:23:48;21.53;;;11.67;;
4460;SDS011;2243;48.812;9.232;2023-07-02T10:26:19;21.10;;;11.37;;
4460;SDS011;2243;48.812;9.232;2023-07-02T10:28:59;20.23;;;11.63;;
4460;SDS011;2243;48.812;9.232;2023-07-02T10:31:31;21.80;;;10.13;;
4460;SDS011;2243;48.812;9.232;2023-07-02T10:34:02;14.50;;;10.47;;
4460;SDS011;2243;48.812;9.232;2023-07-02T10:36:33;20.83;;;11.23;;
4460;SDS011;2243;48.812;9.232;2023-07-02T10:39:04;18.37;;;12.20;;
4460;SDS011;2243;48.812;9.232;2023-07-02T10:41:35;19.03;;;11.90;;
4460;SDS011;2243;48.812;9.232;2023-07-02T10:44:07;17.60;;;11.90;;
4460;SDS011;2243;48.812;9.232;2023-07-02T10:46:45;18.50;;;11.30;;
4460;SDS011;2243;48.812;9.232;2023-07-02T10:49:18;19.10;;;11.37;;
4460;SDS011;2243;48.812;9.232;2023-07-02T10:52:00;17.53;;;10.97;;
4460;SDS011;2243;48.812;9.232;2023-07-02T10:54:38;22.77;;;10.33;;
4460;SDS011;2243;48.812;9.232;2023-07-02T10:57:27;21.17;;;11.30;;
4460;SDS011;2243;48.812;9.232;2023-07-02T11:00:05;24.50;;;11.27;;
4460;SDS011;2243;48.812;9.232;2023-07-02T11:02:38;17.67;;;11.10;;
4460;SDS011;2243;48.812;9.232;2023-07-02T11:05:09;22.93;;;11.87;;
4460;SDS011;2243;48.812;9.232;2023-07-02T11:07:45;21.73;;;12.00;;
4460;SDS011;2243;48.812;9.232;2023-07-02T11:10:19;16.77;;;11.17;;
4460;SDS011;2243;48.812;9.232;2023-07-02T11:12:50;20.77;;;10.63;;
4460;SDS011;2243;48.812;9.232;2023-07-02T11:15:21;16.77;;;10.13;;
4460;SDS011;2243;48.812;9.232;2023-07-02T11:17:52;21.23;;;12.37;;
4460;SDS011;2243;48.812;9.232;2023-07-02T11:20:23;17.20;;;10.60;;
4460;SDS011;2243;48.812;9.232;2023-07-02T11:23:05;18.27;;;11.10;;
4460;SDS011;2243;48.812;9.232;2023-07-02T11:25:56;19.47;;;11.07;;
4460;SDS011;2243;48.812;9.232;2023-07-02T11:28:29;17.57;;;11.83;;
4460;SDS011;2243;48.812;9.232;2023-07-02T11:31:02;18.73;;;11.50;;
4460;SDS011;2243;48.812;9.232;2023-07-02T11:33:37;15.30;;;10.17;;
4460;SDS011;2243;48.812;9.232;2023-07-02T11:36:19;14.80;;;11.10;;
4460;SDS011;2243;48.812;9.232;2023-07-02T11:38:55;20.20;;;11.27;;
4460;SDS011;2243;48.812;9.232;2023-07-02T11:41:35;21.03;;;11.97;;
4460;SDS011;2243;48.812;9.232;2023-07-02T11:44:10;21.23;;;11.40;;
4460;SDS011;2243;48.812;9.232;2023-07-02T11:46:41;17.23;;;10.23;;
4460;SDS011;2243;48.812;9.232;2023-07-02T11:49:13;19.20;;;11.50;;
4460;SDS011;2243;48.812;9.232;2023-07-02T11:51:44;16.87;;;10.43;;
4460;SDS011;2243;48.812;9.232;2023-07-02T11:54:19;16.20;;;10.50;;
4460;SDS011;2243;48.812;9.232;2023-07-02T11:56:50;16.67;;;11.23;;
4460;SDS011;2243;48.812;9.232;2023-07-02T11:59:20;18.70;;;10.63;;
4460;SDS011;2243;48.812;9.232;2023-07-02T12:01:51;15.43;;;10.07;;
4460;SDS011;2243;48.812;9.232;2023-07-02T12:04:22;19.30;;;11.20;;
4460;SDS011;2243;48.812;9.232;2023-07-02T12:06:53;15.57;;;11.47;;
4460;SDS011;2243;48.812;9.232;2023-07-02T12:09:24;17.63;;;11.63;;
4460;SDS011;2243;48.812;9.232;2023-07-02T12:11:57;18.67;;;11.13;;
4460;SDS011;2243;48.812;9.232;2023-07-02T12:14:28;17.77;;;11.63;;
4460;SDS011;2243;48.812;9.232;2023-07-02T12:16:58;19.27;;;11.83;;
4460;SDS011;2243;48.812;9.232;2023-07-02T12:19:33;20.90;;;10.70;;
4460;SDS011;2243;48.812;9.232;2023-07-02T12:22:04;17.60;;;11.73;;
4460;SDS011;2243;48.812;9.232;2023-07-02T12:24:35;18.10;;;11.57;;
4460;SDS011;2243;48.812;9.232;2023-07-02T12:27:07;27.77;;;12.30;;
4460;SDS011;2243;48.812;9.232;2023-07-02T12:29:38;18.80;;;11.93;;
4460;SDS011;2243;48.812;9.232;2023-07-02T12:32:11;17.70;;;10.87;;
4460;SDS011;2243;48.812;9.232;2023-07-02T12:34:42;21.83;;;12.07;;
4460;SDS011;2243;48.812;9.232;2023-07-02T12:37:13;16.23;;;10.70;;
4460;SDS011;2243;48.812;9.232;2023-07-02T12:39:47;16.40;;;11.40;;
4460;SDS011;2243;48.812;9.232;2023-07-02T12:42:18;19.13;;;12.73;;
4460;SDS011;2243;48.812;9.232;2023-07-02T12:44:49;17.47;;;11.27;;
4460;SDS011;2243;48.812;9.232;2023-07-02T12:47:20;19.87;;;11.10;;
4460;SDS011;2243;48.812;9.232;2023-07-02T12:49:51;21.43;;;11.77;;
4460;SDS011;2243;48.812;9.232;2023-07-02T12:52:22;20.37;;;11.40;;
4460;SDS011;2243;48.812;9.232;2023-07-02T12:54:53;22.53;;;11.83;;
4460;SDS011;2243;48.812;9.232;2023-07-02T12:57:25;23.63;;;13.00;;
4460;SDS011;2243;48.812;9.232;2023-07-02T12:59:57;16.60;;;11.27;;
4460;SDS011;2243;48.812;9.232;2023-07-02T13:02:28;20.67;;;11.10;;
4460;SDS011;2243;48.812;9.232;2023-07-02T13:04:59;17.37;;;11.10;;
4460;SDS011;2243;48.812;9.232;2023-07-02T13:07:30;18.63;;;12.10;;
4460;SDS011;2243;48.812;9.232;2023-07-02T13:10:01;19.60;;;12.27;;
4460;SDS011;2243;48.812;9.232;2023-07-02T13:12:32;16.73;;;10.23;;
4460;SDS011;2243;48.812;9.232;2023-07-02T13:15:03;14.77;;;11.10;;
4460;SDS011;2243;48.812;9.232;2023-07-02T13:17:35;21.33;;;12.57;;
4460;SDS011;2243;48.812;9.232;2023-07-02T13:20:06;24.17;;;11.53;;
4460;SDS011;2243;48.812;9.232;2023-07-02T13:22:37;20.43;;;12.30;;
4460;SDS011;2243;48.812;9.232;2023-07-02T13:25:08;22.97;;;12.80;;
4460;SDS011;2243;48.812;9.232;2023-07-02T13:27:40;19.83;;;11.73;;
4460;SDS011;2243;48.812;9.232;2023-07-02T13:30:11;23.00;;;11.83;;
4460;SDS011;2243;48.812;9.232;2023-07-02T13:32:42;16.97;;;10.77;;
4460;SDS011;2243;48.812;9.232;2023-07-02T13:35:13;15.90;;;10.50;;
4460;SDS011;2243;48.812;9.232;2023-07-02T13:37:44;18.73;;;11.50;;
4460;SDS011;2243;48.812;9.232;2023-07-02T13:40:15;16.40;;;12.17;;
4460;SDS011;2243;48.812;9.232;2023-07-02T13:42:46;21.53;;;12.10;;
4460;SDS011;2243;48.812;9.232;2023-07-02T13:45:17;20.67;;;12.80;;
4460;SDS011;2243;48.812;9.232;2023-07-02T13:47:48;19.20;;;11.20;;
4460;SDS011;2243;48.812;9.232;2023-07-02T13:50:19;16.30;;;11.73;;
4460;SDS011;2243;48.812;9.232;2023-07-02T13:52:50;17.23;;;11.00;;
4460;SDS011;2243;48.812;9.232;2023-07-02T13:55:21;18.07;;;11.50;;
4460;SDS011;2243;48.812;9.232;2023-07-02T13:57:57;18.20;;;11.53;;
4460;SDS011;2243;48.812;9.232;2023-07-02T14:00:30;18.23;;;10.90;;
4460;SDS011;2243;48.812;9.232;2023-07-02T14:03:01;16.83;;;11.20;;
4460;SDS011;2243;48.812;9.232;2023-07-02T14:05:33;20.63;;;11.87;;
4460;SDS011;2243;48.812;9.232;2023-07-02T14:08:04;16.27;;;11.60;;
4460;SDS011;2243;48.812;9.232;2023-07-02T14:10:35;15.77;;;11.00;;
4460;SDS011;2243;48.812;9.232;2023-07-02T14:13:06;22.87;;;11.80;;
4460;SDS011;2243;48.812;9.232;2023-07-02T14:15:37;20.33;;;11.97;;
4460;SDS011;2243;48.812;9.232;2023-07-02T14:18:08;14.97;;;10.87;;
4460;SDS011;2243;48.812;9.232;2023-07-02T14:20:39;19.10;;;12.10;;
4460;SDS011;2243;48.812;9.232;2023-07-02T14:23:10;18.30;;;12.30;;
4460;SDS011;2243;48.812;9.232;2023-07-02T14:25:41;16.47;;;11.00;;
4460;SDS011;2243;48.812;9.232;2023-07-02T14:28:12;15.53;;;10.40;;
4460;SDS011;2243;48.812;9.232;2023-07-02T14:30:43;18.67;;;12.17;;
4460;SDS011;2243;48.812;9.232;2023-07-02T14:33:14;18.43;;;11.33;;
4460;SDS011;2243;48.812;9.232;2023-07-02T14:35:46;20.17;;;12.33;;
4460;SDS011;2243;48.812;9.232;2023-07-02T14:38:17;15.80;;;11.30;;
4460;SDS011;2243;48.812;9.232;2023-07-02T14:40:49;17.90;;;10.47;;
4460;SDS011;2243;48.812;9.232;2023-07-02T14:43:25;16.90;;;12.00;;
4460;SDS011;2243;48.812;9.232;2023-07-02T14:45:59;15.40;;;11.27;;
4460;SDS011;2243;48.812;9.232;2023-07-02T14:48:32;16.37;;;10.80;;
4460;SDS011;2243;48.812;9.232;2023-07-02T14:51:03;19.37;;;12.37;;
4460;SDS011;2243;48.812;9.232;2023-07-02T14:53:34;16.47;;;10.60;;
4460;SDS011;2243;48.812;9.232;2023-07-02T14:56:05;17.03;;;10.97;;
4460;SDS011;2243;48.812;9.232;2023-07-02T14:58:36;15.77;;;10.90;;
4460;SDS011;2243;48.812;9.232;2023-07-02T15:01:08;17.77;;;11.80;;
4460;SDS011;2243;48.812;9.232;2023-07-02T15:03:39;18.80;;;12.20;;
4460;SDS011;2243;48.812;9.232;2023-07-02T15:06:16;19.43;;;11.40;;
4460;SDS011;2243;48.812;9.232;2023-07-02T15:08:48;22.33;;;12.70;;
4460;SDS011;2243;48.812;9.232;2023-07-02T15:11:19;16.90;;;11.57;;
4460;SDS011;2243;48.812;9.232;2023-07-02T15:13:50;16.87;;;11.23;;
4460;SDS011;2243;48.812;9.232;2023-07-02T15:16:21;19.40;;;11.53;;
4460;SDS011;2243;48.812;9.232;2023-07-02T15:18:52;17.00;;;10.43;;
4460;SDS011;2243;48.812;9.232;2023-07-02T15:21:23;17.23;;;11.97;;
4460;SDS011;2243;48.812;9.232;2023-07-02T15:23:55;19.23;;;11.60;;
4460;SDS011;2243;48.812;9.232;2023-07-02T15:26:25;18.27;;;11.53;;
4460;SDS011;2243;48.812;9.232;2023-07-02T15:28:56;20.00;;;12.93;;
4460;SDS011;2243;48.812;9.232;2023-07-02T15:31:28;16.53;;;11.30;;
4460;SDS011;2243;48.812;9.232;2023-07-02T15:33:59;17.60;;;11.93;;
4460;SDS011;2243;48.812;9.232;2023-07-02T15:36:30;20.03;;;12.20;;
4460;SDS011;2243;48.812;9.232;2023-07-02T15:39:06;17.23;;;11.57;;